Time,TemperatureF,DewpointF,PressureIn,WindDirection,WindDirectionDegrees,WindSpeedMPH,WindSpeedGustMPH,Humidity,HourlyPrecipIn,Conditions,Clouds,dailyrainin,SoftwareType,DateUTC
2013-07-12 00:02:00,58.0,-99.9,29.94,South,174,6.0,7.0,-999,-99.99,,,-99.99,,2013-07-12 08:02:00,
2013-07-12 00:11:00,58.0,-99.9,29.94,South,173,7.0,8.0,-999,-99.99,,,-99.99,,2013-07-12 08:11:00,
2013-07-12 00:32:00,57.0,-99.9,29.95,South,172,8.0,12.0,-999,-99.99,,,-99.99,,2013-07-12 08:32:00,
2013-07-12 00:42:00,57.0,-99.9,29.95,South,172,10.0,11.0,-999,-99.99,,,-99.99,,2013-07-12 08:42:00,
2013-07-12 00:53:00,56.0,-99.9,29.95,South,171,11.0,13.0,-999,-99.99,,,-99.99,,2013-07-12 08:53:00,
2013-07-12 01:02:00,56.0,-99.9,29.95,SSE,168,11.0,13.0,-999,-99.99,,,-99.99,,2013-07-12 09:02:00,
2013-07-12 01:13:00,56.0,-99.9,29.96,South,170,9.0,11.0,-999,-99.99,,,-99.99,,2013-07-12 09:13:00,
2013-07-12 01:32:00,56.0,-99.9,29.96,SSE,168,9.0,11.0,-999,-99.99,,,-99.99,,2013-07-12 09:32:00,
2013-07-12 01:43:00,56.0,-99.9,29.96,South,172,9.0,11.0,-999,-99.99,,,-99.99,,2013-07-12 09:43:00,
2013-07-12 01:52:00,56.0,-99.9,29.96,South,174,11.0,13.0,-999,-99.99,,,-99.99,,2013-07-12 09:52:00,
2013-07-12 02:01:00,56.0,-99.9,29.96,South,173,11.0,12.0,-999,-99.99,,,-99.99,,2013-07-12 10:01:00,
2013-07-12 02:11:00,55.0,-99.9,29.97,South,175,12.0,14.0,-999,-99.99,,,-99.99,,2013-07-12 10:11:00,
2013-07-12 02:33:00,56.0,-99.9,29.97,South,176,12.0,15.0,-999,-99.99,,,-99.99,,2013-07-12 10:33:00,
2013-07-12 02:43:00,55.0,-99.9,29.97,South,175,12.0,14.0,-999,-99.99,,,-99.99,,2013-07-12 10:43:00,
2013-07-12 02:52:00,55.0,-99.9,29.97,South,175,12.0,14.0,-999,-99.99,,,-99.99,,2013-07-12 10:52:00,
2013-07-12 03:02:00,55.0,-99.9,29.97,South,175,10.0,13.0,-999,-99.99,,,-99.99,,2013-07-12 11:02:00,
2013-07-12 03:12:00,55.0,-99.9,29.97,South,173,9.0,12.0,-999,-99.99,,,-99.99,,2013-07-12 11:12:00,
2013-07-12 03:32:00,56.0,-99.9,29.97,South,173,11.0,12.0,-999,-99.99,,,-99.99,,2013-07-12 11:32:00,
2013-07-12 03:43:00,56.0,-99.9,29.97,South,175,10.0,12.0,-999,-99.99,,,-99.99,,2013-07-12 11:43:00,
2013-07-12 03:53:00,56.0,-99.9,29.97,South,176,9.0,11.0,-999,-99.99,,,-99.99,,2013-07-12 11:53:00,
2013-07-12 04:02:00,57.0,-99.9,29.97,South,176,10.0,12.0,-999,-99.99,,,-99.99,,2013-07-12 12:02:00,
2013-07-12 04:11:00,57.0,-99.9,29.97,South,177,10.0,12.0,-999,-99.99,,,-99.99,,2013-07-12 12:11:00,
2013-07-12 04:32:00,57.0,-99.9,29.96,South,180,10.0,12.0,-999,-99.99,,,-99.99,,2013-07-12 12:32:00,
2013-07-12 04:43:00,57.0,-99.9,29.96,South,177,10.0,12.0,-999,-99.99,,,-99.99,,2013-07-12 12:43:00,
2013-07-12 04:53:00,57.0,-99.9,29.96,South,177,10.0,12.0,-999,-99.99,,,-99.99,,2013-07-12 12:53:00,
2013-07-12 05:01:00,57.0,-99.9,29.96,South,179,9.0,12.0,-999,-99.99,,,-99.99,,2013-07-12 13:01:00,
2013-07-12 05:12:00,57.0,-99.9,29.96,South,181,10.0,12.0,-999,-99.99,,,-99.99,,2013-07-12 13:12:00,
2013-07-12 05:32:00,57.0,-99.9,29.97,South,178,11.0,12.0,-999,-99.99,,,-99.99,,2013-07-12 13:32:00,
2013-07-12 05:43:00,57.0,-99.9,29.97,South,180,11.0,13.0,-999,-99.99,,,-99.99,,2013-07-12 13:43:00,
2013-07-12 06:32:00,56.0,-99.9,29.97,South,190,11.0,12.0,-999,-99.99,,,-99.99,,2013-07-12 14:32:00,
2013-07-12 06:44:00,55.0,-99.9,29.97,South,187,10.0,12.0,-999,-99.99,,,-99.99,,2013-07-12 14:44:00,
2013-07-12 07:02:00,55.0,-99.9,29.97,SSW,194,7.0,9.0,-999,-99.99,,,-99.99,,2013-07-12 15:02:00,
2013-07-12 07:11:00,55.0,-99.9,29.97,SSW,196,7.0,9.0,-999,-99.99,,,-99.99,,2013-07-12 15:11:00,
2013-07-12 08:02:00,55.0,-99.9,29.97,South,187,8.0,9.0,-999,-99.99,,,-99.99,,2013-07-12 16:02:00,
2013-07-12 08:11:00,55.0,-99.9,29.97,South,187,8.0,10.0,-999,-99.99,,,-99.99,,2013-07-12 16:11:00,
2013-07-12 08:43:00,56.0,-99.9,29.98,South,173,5.0,8.0,-999,-99.99,,,-99.99,,2013-07-12 16:43:00,
2013-07-12 09:07:00,56.0,-99.9,29.98,South,174,7.0,9.0,-999,-99.99,,,-99.99,,2013-07-12 17:07:00,
2013-07-12 09:24:00,57.0,-99.9,29.98,South,177,6.0,9.0,-999,-99.99,,,-99.99,,2013-07-12 17:24:00,
2013-07-12 09:40:00,56.0,-99.9,29.98,SSE,167,5.0,8.0,-999,-99.99,,,-99.99,,2013-07-12 17:40:00,
2013-07-12 09:57:00,57.0,-99.9,29.98,South,174,6.0,8.0,-999,-99.99,,,-99.99,,2013-07-12 17:57:00,
2013-07-12 10:08:00,56.0,-99.9,29.98,South,172,6.0,8.0,-999,-99.99,,,-99.99,,2013-07-12 18:08:00,
2013-07-12 10:15:00,57.0,-99.9,29.98,South,173,5.0,8.0,-999,-99.99,,,-99.99,,2013-07-12 18:15:00,
2013-07-12 10:35:00,56.0,-99.9,29.98,SSE,166,4.0,6.0,-999,-99.99,,,-99.99,,2013-07-12 18:35:00,
2013-07-12 10:59:00,58.0,-99.9,29.98,South,181,3.0,5.0,-999,-99.99,,,-99.99,,2013-07-12 18:59:00,
2013-07-12 11:05:00,59.0,-99.9,29.98,South,182,4.0,5.0,-999,-99.99,,,-99.99,,2013-07-12 19:05:00,
2013-07-12 11:25:00,59.0,-99.9,29.98,South,186,4.0,6.0,-999,-99.99,,,-99.99,,2013-07-12 19:25:00,
2013-07-12 12:04:00,58.0,-99.9,29.98,SSW,198,7.0,7.0,-999,-99.99,,,-99.99,,2013-07-12 20:04:00,
2013-07-12 12:15:00,58.0,-99.9,29.98,South,191,8.0,8.0,-999,-99.99,,,-99.99,,2013-07-12 20:15:00,
2013-07-12 12:56:00,58.0,-99.9,29.98,South,191,5.0,7.0,-999,-99.99,,,-99.99,,2013-07-12 20:56:00,
2013-07-12 13:04:00,57.0,-99.9,29.98,SSW,194,6.0,7.0,-999,-99.99,,,-99.99,,2013-07-12 21:04:00,
2013-07-12 13:59:00,60.0,-99.9,29.98,South,190,2.0,5.0,-999,-99.99,,,-99.99,,2013-07-12 21:59:00,
2013-07-12 14:04:00,60.0,-99.9,29.97,South,187,2.0,4.0,-999,-99.99,,,-99.99,,2013-07-12 22:04:00,
2013-07-12 14:25:00,60.0,-99.9,29.97,South,183,3.0,4.0,-999,-99.99,,,-99.99,,2013-07-12 22:25:00,
2013-07-12 14:47:00,60.0,-99.9,29.97,SSW,192,3.0,5.0,-999,-99.99,,,-99.99,,2013-07-12 22:47:00,
2013-07-12 14:56:00,60.0,-99.9,29.97,SSW,200,3.0,4.0,-999,-99.99,,,-99.99,,2013-07-12 22:56:00,
2013-07-12 15:37:00,62.0,-99.9,29.96,South,184,4.0,5.0,-999,-99.99,,,-99.99,,2013-07-12 23:37:00,
2013-07-12 15:58:00,60.0,-99.9,29.96,South,185,5.0,5.0,-999,-99.99,,,-99.99,,2013-07-12 23:58:00,
2013-07-12 18:15:00,59.0,-99.9,29.95,South,184,10.0,11.0,-999,-99.99,,,-99.99,,2013-07-13 02:15:00,
2013-07-12 19:47:00,58.0,-99.9,29.95,South,182,12.0,14.0,-999,-99.99,,,-99.99,,2013-07-13 03:47:00,
2013-07-12 21:01:00,56.0,-99.9,29.95,South,182,13.0,16.0,-999,-99.99,,,-99.99,,2013-07-13 05:01:00,
2013-07-12 21:22:00,56.0,-99.9,29.95,South,183,11.0,16.0,-999,-99.99,,,-99.99,,2013-07-13 05:22:00,
2013-07-12 21:42:00,56.0,-99.9,29.95,South,186,13.0,18.0,-999,-99.99,,,-99.99,,2013-07-13 05:42:00,
2013-07-12 21:52:00,56.0,-99.9,29.95,South,186,14.0,18.0,-999,-99.99,,,-99.99,,2013-07-13 05:52:00,
2013-07-12 22:02:00,56.0,-99.9,29.96,South,185,12.0,15.0,-999,-99.99,,,-99.99,,2013-07-13 06:02:00,
2013-07-12 22:22:00,55.0,-99.9,29.95,South,186,13.0,16.0,-999,-99.99,,,-99.99,,2013-07-13 06:22:00,
2013-07-12 22:43:00,56.0,-99.9,29.96,South,184,12.0,15.0,-999,-99.99,,,-99.99,,2013-07-13 06:43:00,
2013-07-12 22:52:00,56.0,-99.9,29.96,South,181,12.0,15.0,-999,-99.99,,,-99.99,,2013-07-13 06:52:00,
2013-07-12 23:02:00,56.0,-99.9,29.96,South,174,13.0,18.0,-999,-99.99,,,-99.99,,2013-07-13 07:02:00,
2013-07-12 23:11:00,56.0,-99.9,29.96,South,184,13.0,17.0,-999,-99.99,,,-99.99,,2013-07-13 07:11:00,
2013-07-12 23:33:00,56.0,-99.9,29.96,South,182,9.0,12.0,-999,-99.99,,,-99.99,,2013-07-13 07:33:00,
2013-07-12 23:44:00,56.0,-99.9,29.96,South,178,11.0,13.0,-999,-99.99,,,-99.99,,2013-07-13 07:44:00,
2013-07-12 23:53:00,56.0,-99.9,29.96,South,177,11.0,15.0,-999,-99.99,,,-99.99,,2013-07-13 07:53:00,